Time;durP1;ratioP1;P1;durP2;ratioP2;P2;SDS_P1;SDS_P2;PMS_P1;PMS_P2;Temp;Humidity;BMP_temperature;BMP_pressure;BME280_temperature;BME280_humidity;BME280_pressure;Samples;Min_cycle;Max_cycle;Signal;HPM_P1;HPM_P2
2021/05/27 00:00:03;;;;;;;3.92;3.60;;;14.60;96.60;;;;;;5091556;27;20291;-62
2021/05/27 00:02:29;;;;;;;5.07;4.65;;;14.60;96.70;;;;;;5092015;27;20223;-62
2021/05/27 00:04:55;;;;;;;3.63;3.33;;;14.50;96.90;;;;;;5091132;27;20688;-62
2021/05/27 00:07:22;;;;;;;4.50;4.10;;;14.50;97.00;;;;;;5091252;27;20558;-63
2021/05/27 00:09:48;;;;;;;4.85;4.50;;;14.50;97.00;;;;;;5090305;27;20215;-63
2021/05/27 00:12:14;;;;;;;5.10;3.63;;;14.50;97.10;;;;;;5090522;27;20225;-63
2021/05/27 00:14:41;;;;;;;10.65;9.50;;;14.40;97.00;;;;;;5090782;27;20229;-63
2021/05/27 00:17:08;;;;;;;4.22;3.83;;;14.40;97.10;;;;;;5091193;27;20226;-63
2021/05/27 00:19:34;;;;;;;4.05;3.65;;;14.40;97.10;;;;;;5091016;27;20222;-63
2021/05/27 00:22:01;;;;;;;3.03;2.83;;;14.30;97.00;;;;;;5090626;27;20226;-63
2021/05/27 00:24:29;;;;;;;3.60;2.88;;;14.30;96.80;;;;;;5091267;27;20313;-63
2021/05/27 00:26:55;;;;;;;3.35;3.05;;;14.20;97.00;;;;;;5090593;27;20230;-63
2021/05/27 00:29:22;;;;;;;3.65;3.30;;;14.20;97.10;;;;;;5091215;27;20225;-63
2021/05/27 00:31:48;;;;;;;3.78;3.45;;;14.10;97.10;;;;;;5090491;27;20272;-63
2021/05/27 00:34:15;;;;;;;3.38;3.17;;;14.10;97.10;;;;;;5090318;27;20219;-62
2021/05/27 00:36:41;;;;;;;3.70;3.35;;;14.10;97.20;;;;;;5090545;27;20221;-62
2021/05/27 00:39:08;;;;;;;4.05;2.80;;;14.00;97.40;;;;;;5091282;27;20278;-63
2021/05/27 00:41:34;;;;;;;4.10;3.15;;;13.90;97.00;;;;;;5090904;27;20684;-63
2021/05/27 00:44:00;;;;;;;3.38;3.15;;;13.90;97.10;;;;;;5089796;27;20227;-62
2021/05/27 00:46:27;;;;;;;4.13;3.72;;;13.90;97.10;;;;;;5090321;27;20253;-63
2021/05/27 00:48:59;;;;;;;3.33;3.03;;;13.90;97.10;;;;;;5089848;27;20656;-63
2021/05/27 00:51:28;;;;;;;3.40;3.15;;;13.80;97.10;;;;;;5092213;27;20229;-64
2021/05/27 00:53:56;;;;;;;4.65;4.25;;;13.80;97.10;;;;;;5093775;27;20229;-63
2021/05/27 00:56:23;;;;;;;3.80;3.05;;;13.90;97.20;;;;;;5094097;27;20222;-62
2021/05/27 00:58:49;;;;;;;3.72;3.42;;;13.90;97.10;;;;;;5093774;27;20214;-62
2021/05/27 01:01:16;;;;;;;4.60;4.10;;;13.80;97.00;;;;;;5093631;27;20282;-62
2021/05/27 01:03:43;;;;;;;4.80;4.05;;;13.80;97.00;;;;;;5051562;27;1212662;-59
2021/05/27 01:06:10;;;;;;;4.95;4.45;;;13.80;97.00;;;;;;5095803;27;20218;-62
2021/05/27 01:08:38;;;;;;;4.40;4.00;;;13.80;96.90;;;;;;5095769;27;20566;-62
2021/05/27 01:11:04;;;;;;;3.50;3.20;;;13.80;96.90;;;;;;5094728;27;20648;-62
2021/05/27 01:13:33;;;;;;;7.28;5.30;;;13.70;97.00;;;;;;5095469;27;20237;-62
2021/05/27 01:16:00;;;;;;;5.97;5.28;;;13.70;96.90;;;;;;5095100;27;20721;-62
2021/05/27 01:18:27;;;;;;;6.13;4.57;;;13.70;96.80;;;;;;5095440;27;20316;-62
2021/05/27 01:20:55;;;;;;;3.50;3.20;;;13.70;97.10;;;;;;5094705;27;20673;-62
2021/05/27 01:23:24;;;;;;;5.03;4.53;;;13.70;96.70;;;;;;5095000;27;20275;-63
2021/05/27 01:25:53;;;;;;;4.60;4.15;;;13.70;96.60;;;;;;5094645;27;20364;-62
2021/05/27 01:28:21;;;;;;;4.30;4.00;;;13.70;96.50;;;;;;5095567;27;22149;-62
2021/05/27 01:30:48;;;;;;;4.05;3.75;;;13.70;96.50;;;;;;5094842;27;20232;-63
2021/05/27 01:33:16;;;;;;;3.38;3.17;;;13.60;96.60;;;;;;5095079;27;20704;-63
2021/05/27 01:35:43;;;;;;;3.38;3.08;;;13.60;96.60;;;;;;5094842;27;20221;-63
2021/05/27 01:38:14;;;;;;;4.30;4.00;;;13.60;96.70;;;;;;5095000;27;20222;-63
2021/05/27 01:40:42;;;;;;;4.40;3.70;;;13.50;96.50;;;;;;5094649;27;20218;-63
2021/05/27 01:43:09;;;;;;;3.80;3.50;;;13.50;96.60;;;;;;5093748;27;20223;-63
2021/05/27 01:45:36;;;;;;;3.33;3.03;;;13.50;96.60;;;;;;5100907;27;20222;-62
2021/05/27 01:48:04;;;;;;;3.80;3.53;;;13.50;96.70;;;;;;5112041;27;20529;-62
2021/05/27 01:50:30;;;;;;;3.72;3.42;;;13.50;96.70;;;;;;5110541;27;20223;-63
2021/05/27 01:52:58;;;;;;;6.18;3.85;;;13.40;96.60;;;;;;5113816;27;20233;-63
2021/05/27 01:55:24;;;;;;;4.13;3.83;;;13.40;96.70;;;;;;5114475;27;20221;-63
2021/05/27 01:57:52;;;;;;;4.05;3.85;;;13.40;96.70;;;;;;5114385;27;20226;-62
2021/05/27 02:00:19;;;;;;;3.80;3.60;;;13.40;96.70;;;;;;5114433;27;20291;-63
2021/05/27 02:02:46;;;;;;;4.70;4.40;;;13.40;96.50;;;;;;5115009;27;20210;-62
2021/05/27 02:05:13;;;;;;;4.07;3.65;;;13.50;96.50;;;;;;5093795;27;21159;-63
2021/05/27 02:07:39;;;;;;;4.10;3.47;;;13.40;96.50;;;;;;5094511;27;20664;-63
2021/05/27 02:10:07;;;;;;;3.83;3.53;;;13.40;96.80;;;;;;5094413;27;20302;-63
2021/05/27 02:12:33;;;;;;;4.05;3.75;;;13.40;96.80;;;;;;5094324;27;20219;-63
2021/05/27 02:15:01;;;;;;;4.78;3.75;;;13.30;96.80;;;;;;5093345;27;20230;-63
2021/05/27 02:17:28;;;;;;;4.72;4.43;;;13.30;96.90;;;;;;5094018;27;20669;-63
2021/05/27 02:19:54;;;;;;;3.65;3.35;;;13.20;96.80;;;;;;5094146;27;20271;-63
2021/05/27 02:22:20;;;;;;;3.60;3.33;;;13.20;96.90;;;;;;5099215;27;20227;-63
2021/05/27 02:24:47;;;;;;;4.00;3.38;;;13.10;97.00;;;;;;5112753;27;20215;-63
2021/05/27 02:27:13;;;;;;;4.10;3.80;;;13.10;97.20;;;;;;5112709;27;20231;-63
2021/05/27 02:29:39;;;;;;;4.90;4.50;;;13.10;97.30;;;;;;5112957;27;20672;-62
2021/05/27 02:32:07;;;;;;;4.38;4.07;;;12.90;97.30;;;;;;5112886;28;20225;-63
2021/05/27 02:34:33;;;;;;;5.10;4.70;;;12.90;97.40;;;;;;5113043;27;20218;-62
2021/05/27 02:37:00;;;;;;;4.90;4.50;;;12.90;97.50;;;;;;5113129;28;20233;-62
2021/05/27 02:39:27;;;;;;;5.70;4.00;;;12.90;97.50;;;;;;5114051;28;20230;-62
2021/05/27 02:41:54;;;;;;;5.38;4.25;;;12.90;97.60;;;;;;5114063;28;20231;-62
2021/05/27 02:44:21;;;;;;;4.72;4.40;;;12.90;97.60;;;;;;5112579;27;20226;-63
2021/05/27 02:46:47;;;;;;;5.57;4.47;;;12.90;97.70;;;;;;5113547;27;20222;-62
2021/05/27 02:49:15;;;;;;;4.18;3.90;;;12.90;97.70;;;;;;5112469;27;20291;-62
2021/05/27 02:51:41;;;;;;;5.35;4.95;;;12.90;97.80;;;;;;5114399;27;20223;-63
2021/05/27 02:54:07;;;;;;;4.50;4.20;;;12.90;97.90;;;;;;5114014;27;20237;-63
2021/05/27 02:56:34;;;;;;;4.85;4.43;;;12.90;98.00;;;;;;5114414;27;20339;-63
2021/05/27 02:59:00;;;;;;;6.50;6.03;;;12.90;98.00;;;;;;5114150;28;20672;-63
2021/05/27 03:01:26;;;;;;;5.60;5.10;;;12.90;98.00;;;;;;5114331;28;20816;-63
2021/05/27 03:03:53;;;;;;;6.55;6.00;;;12.90;98.00;;;;;;5121014;27;20229;-63
2021/05/27 03:06:20;;;;;;;5.97;5.47;;;12.90;98.00;;;;;;5114707;27;20218;-62
2021/05/27 03:08:47;;;;;;;5.15;4.75;;;12.90;98.10;;;;;;5114386;28;20314;-63
2021/05/27 03:11:13;;;;;;;5.10;4.80;;;12.80;98.20;;;;;;5113580;27;20301;-62
2021/05/27 03:13:40;;;;;;;5.35;4.50;;;12.80;98.30;;;;;;5113700;28;20214;-62
2021/05/27 03:16:06;;;;;;;5.95;4.28;;;12.90;98.30;;;;;;5113681;27;20604;-63
2021/05/27 03:18:33;;;;;;;5.03;4.53;;;12.80;98.30;;;;;;5114271;28;20595;-64
2021/05/27 03:21:00;;;;;;;5.20;4.80;;;12.80;98.40;;;;;;5113555;27;20237;-64
2021/05/27 03:23:28;;;;;;;5.20;4.70;;;12.90;98.40;;;;;;5114044;28;20271;-64
2021/05/27 03:25:54;;;;;;;8.50;7.13;;;12.90;98.30;;;;;;5111853;27;20631;-63
2021/05/27 03:28:22;;;;;;;8.50;7.60;;;12.90;98.30;;;;;;5113827;28;20226;-63
2021/05/27 03:30:49;;;;;;;5.60;5.10;;;12.90;98.40;;;;;;5112822;27;20243;-63
2021/05/27 03:33:15;;;;;;;4.35;4.05;;;12.90;98.40;;;;;;5112484;28;20218;-62
2021/05/27 03:35:42;;;;;;;5.25;4.75;;;12.90;98.30;;;;;;5113025;27;20371;-63
2021/05/27 03:38:08;;;;;;;6.50;5.90;;;12.90;98.40;;;;;;5111242;27;20539;-63
2021/05/27 03:40:36;;;;;;;14.70;11.45;;;13.00;98.50;;;;;;5111199;27;20234;-63
2021/05/27 03:43:03;;;;;;;7.38;5.97;;;13.00;98.50;;;;;;5110805;27;20227;-63
2021/05/27 03:45:31;;;;;;;6.00;5.50;;;13.00;98.50;;;;;;5111950;27;20214;-63
2021/05/27 03:47:57;;;;;;;5.40;5.00;;;13.00;98.40;;;;;;5112754;27;20231;-63
2021/05/27 03:50:27;;;;;;;5.28;4.88;;;13.00;98.50;;;;;;5105732;27;20360;-63
2021/05/27 03:52:54;;;;;;;5.05;4.65;;;13.00;98.60;;;;;;5113730;27;20225;-63
2021/05/27 03:55:22;;;;;;;4.82;4.28;;;13.00;98.60;;;;;;5113122;27;20214;-63
2021/05/27 03:57:51;;;;;;;4.68;4.32;;;13.00;98.50;;;;;;5112998;27;20222;-63
2021/05/27 04:03:06;;;;;;;6.35;5.85;;;13.00;98.50;;;;;;5108427;27;20272;-63
2021/05/27 04:08:17;;;;;;;9.23;8.52;;;13.10;98.70;;;;;;5112727;27;20283;-63
2021/05/27 04:10:44;;;;;;;13.30;12.00;;;13.10;98.80;;;;;;5112966;27;20286;-63
2021/05/27 04:13:12;;;;;;;5.65;5.15;;;13.10;98.80;;;;;;5112707;27;20625;-63
2021/05/27 04:15:40;;;;;;;5.18;4.78;;;13.10;98.70;;;;;;5113146;27;20229;-63
2021/05/27 04:18:08;;;;;;;5.07;4.57;;;13.20;98.70;;;;;;5112510;27;20242;-63
2021/05/27 04:20:37;;;;;;;4.22;3.92;;;13.10;98.70;;;;;;5113172;27;20561;-63
2021/05/27 04:23:05;;;;;;;5.60;5.18;;;13.10;98.80;;;;;;5112616;27;20219;-63
2021/05/27 04:25:31;;;;;;;4.70;4.30;;;13.10;98.80;;;;;;5106669;27;20225;-63
2021/05/27 04:27:59;;;;;;;5.35;4.85;;;13.20;98.80;;;;;;5112845;27;20230;-63
2021/05/27 04:30:27;;;;;;;6.53;4.88;;;13.20;98.80;;;;;;5112686;27;20226;-63
2021/05/27 04:32:59;;;;;;;4.07;3.78;;;13.20;98.90;;;;;;5112709;27;20236;-63
2021/05/27 04:35:32;;;;;;;6.25;5.65;;;13.20;99.00;;;;;;5112790;27;20215;-63
2021/05/27 04:38:00;;;;;;;4.43;4.05;;;13.20;99.10;;;;;;5112556;27;20222;-63
2021/05/27 04:40:27;;;;;;;5.13;4.68;;;13.20;99.10;;;;;;5112600;27;20236;-63
2021/05/27 04:42:53;;;;;;;6.80;5.40;;;13.20;99.20;;;;;;5112595;27;20532;-64
2021/05/27 04:45:20;;;;;;;6.18;5.28;;;13.20;99.50;;;;;;5112274;27;20232;-63
2021/05/27 04:47:47;;;;;;;5.43;5.05;;;13.30;99.20;;;;;;5112563;27;20657;-63
2021/05/27 04:50:14;;;;;;;5.78;5.38;;;13.30;99.10;;;;;;5111420;27;20219;-63
2021/05/27 04:52:41;;;;;;;6.95;6.45;;;13.30;99.10;;;;;;5112597;27;20233;-63
2021/05/27 04:55:10;;;;;;;8.63;8.02;;;13.30;99.10;;;;;;5112264;27;20267;-63
2021/05/27 04:57:37;;;;;;;7.68;7.03;;;13.30;99.20;;;;;;5112381;27;20223;-63
2021/05/27 05:00:07;;;;;;;5.40;5.00;;;13.40;99.40;;;;;;5112417;27;20226;-62
2021/05/27 05:02:34;;;;;;;6.35;4.93;;;13.40;99.30;;;;;;5112446;27;20299;-61
2021/05/27 05:05:01;;;;;;;9.35;8.75;;;13.40;99.40;;;;;;5112447;27;20230;-62
2021/05/27 05:07:27;;;;;;;9.13;8.48;;;13.40;99.50;;;;;;5111757;27;20661;-62
2021/05/27 05:09:54;;;;;;;10.65;9.98;;;13.40;99.80;;;;;;5112268;27;20214;-62
2021/05/27 05:12:20;;;;;;;5.90;5.50;;;13.40;99.90;;;;;;5112032;27;20218;-63
2021/05/27 05:14:46;;;;;;;7.38;6.78;;;13.50;99.90;;;;;;5112470;27;20226;-63
2021/05/27 05:17:13;;;;;;;9.00;8.18;;;13.50;99.90;;;;;;5111667;27;20237;-62
2021/05/27 05:19:39;;;;;;;5.95;5.55;;;13.60;99.90;;;;;;5112361;27;20215;-62
2021/05/27 05:22:06;;;;;;;6.70;5.88;;;13.60;99.80;;;;;;5111335;27;20700;-62
2021/05/27 05:24:32;;;;;;;5.38;4.90;;;13.70;99.80;;;;;;5112387;27;21517;-63
2021/05/27 05:26:59;;;;;;;9.20;8.20;;;13.80;99.80;;;;;;5112269;27;20317;-62
2021/05/27 05:29:25;;;;;;;11.50;10.48;;;13.90;99.80;;;;;;5111794;27;20281;-62
2021/05/27 05:31:51;;;;;;;8.23;6.63;;;14.00;99.40;;;;;;5112559;27;20545;-63
2021/05/27 05:34:18;;;;;;;5.10;4.70;;;14.10;99.20;;;;;;5111801;27;20681;-63
2021/05/27 05:36:44;;;;;;;4.40;4.00;;;14.20;98.90;;;;;;5112386;27;20219;-63
2021/05/27 05:39:11;;;;;;;5.15;4.65;;;14.20;98.70;;;;;;5115640;27;20226;-63
2021/05/27 05:41:38;;;;;;;4.00;3.70;;;14.20;98.70;;;;;;5116311;27;20229;-63
2021/05/27 05:44:05;;;;;;;5.85;4.00;;;14.30;98.70;;;;;;5120625;27;20228;-63
2021/05/27 05:46:31;;;;;;;4.93;4.30;;;14.30;98.60;;;;;;5115929;27;20751;-63
2021/05/27 05:48:58;;;;;;;4.40;4.10;;;14.40;98.50;;;;;;5103156;28;20219;-63
2021/05/27 05:51:24;;;;;;;4.57;3.45;;;14.40;98.50;;;;;;5115255;27;20225;-62
2021/05/27 05:53:50;;;;;;;6.88;4.68;;;14.40;98.30;;;;;;5115800;27;20222;-64
2021/05/27 05:56:17;;;;;;;6.20;5.60;;;14.50;98.30;;;;;;5115281;27;20294;-62
2021/05/27 05:58:44;;;;;;;6.05;5.55;;;14.50;98.30;;;;;;5115624;27;20744;-63
2021/05/27 06:01:10;;;;;;;4.72;4.13;;;14.50;98.20;;;;;;5115283;27;20222;-63
2021/05/27 06:03:36;;;;;;;5.75;5.18;;;14.60;98.00;;;;;;5112358;27;20583;-62
2021/05/27 06:06:03;;;;;;;5.90;4.85;;;14.60;98.00;;;;;;5115843;28;20231;-63
2021/05/27 06:08:29;;;;;;;7.07;5.38;;;14.70;97.90;;;;;;5114810;27;20230;-62
2021/05/27 06:10:55;;;;;;;5.03;4.53;;;14.80;97.80;;;;;;5115433;27;20219;-63
2021/05/27 06:13:22;;;;;;;5.35;4.88;;;14.70;97.60;;;;;;5115097;27;20702;-63
2021/05/27 06:15:49;;;;;;;5.85;5.35;;;14.70;97.50;;;;;;5115404;27;20222;-62
2021/05/27 06:18:16;;;;;;;4.45;4.05;;;14.80;97.50;;;;;;5114769;27;20233;-62
2021/05/27 06:20:43;;;;;;;3.53;3.22;;;14.80;97.50;;;;;;5115188;27;20219;-63
2021/05/27 06:23:09;;;;;;;3.58;3.17;;;14.80;97.20;;;;;;5114927;27;20537;-61
2021/05/27 06:25:37;;;;;;;4.10;3.80;;;14.80;97.20;;;;;;5115229;27;20225;-62
2021/05/27 06:28:04;;;;;;;3.33;3.03;;;14.80;97.30;;;;;;5115002;27;20233;-63
2021/05/27 06:30:31;;;;;;;2.75;2.55;;;15.00;97.40;;;;;;5114884;27;20226;-63
2021/05/27 06:32:59;;;;;;;2.93;2.73;;;15.00;97.60;;;;;;5114842;27;20223;-62
2021/05/27 06:35:25;;;;;;;10.70;9.70;;;15.10;97.20;;;;;;5114656;27;20487;-63
2021/05/27 06:37:51;;;;;;;5.50;5.00;;;15.10;96.80;;;;;;5114616;27;20472;-63
2021/05/27 06:40:21;;;;;;;4.18;3.88;;;15.10;96.50;;;;;;5114702;27;20223;-63
2021/05/27 06:42:48;;;;;;;3.22;2.92;;;15.10;96.60;;;;;;5114707;27;20218;-63
2021/05/27 06:45:16;;;;;;;6.90;6.25;;;15.00;96.60;;;;;;5114585;27;20561;-63
2021/05/27 06:47:44;;;;;;;6.25;5.65;;;15.00;96.60;;;;;;5108077;27;20231;-63
2021/05/27 06:50:11;;;;;;;3.90;3.60;;;15.00;96.80;;;;;;5107009;27;20215;-63
2021/05/27 06:52:37;;;;;;;4.40;3.70;;;15.00;96.70;;;;;;5114491;27;20479;-63
2021/05/27 06:55:05;;;;;;;5.18;4.20;;;15.00;96.70;;;;;;5114677;27;20505;-63
2021/05/27 06:57:31;;;;;;;4.33;3.70;;;14.90;96.70;;;;;;5114056;27;20546;-62
2021/05/27 06:59:58;;;;;;;4.55;4.25;;;14.80;96.80;;;;;;5114692;27;20472;-62
2021/05/27 07:02:24;;;;;;;4.10;3.33;;;14.80;97.00;;;;;;5113999;27;20322;-63
2021/05/27 07:04:51;;;;;;;3.50;3.22;;;14.80;96.90;;;;;;5114505;27;20564;-63
2021/05/27 07:07:18;;;;;;;4.47;4.07;;;14.80;97.00;;;;;;5113857;27;20222;-63
2021/05/27 07:09:44;;;;;;;4.32;3.92;;;14.90;97.10;;;;;;5114331;27;20215;-63
2021/05/27 07:12:11;;;;;;;4.13;3.67;;;14.90;97.10;;;;;;5114055;27;20551;-63
2021/05/27 07:14:37;;;;;;;4.03;3.63;;;15.00;97.20;;;;;;5113879;27;20214;-63
2021/05/27 07:17:04;;;;;;;3.85;3.35;;;15.00;97.00;;;;;;5114017;27;20327;-63
2021/05/27 07:19:31;;;;;;;3.80;3.20;;;15.10;96.90;;;;;;5113620;27;20223;-63
2021/05/27 07:21:59;;;;;;;5.63;3.57;;;15.10;96.50;;;;;;5114098;27;20517;-62
2021/05/27 07:24:26;;;;;;;4.00;3.70;;;15.20;96.40;;;;;;5113745;27;20479;-63
2021/05/27 07:26:52;;;;;;;3.30;2.70;;;15.20;96.30;;;;;;5113919;27;20468;-63
2021/05/27 07:29:18;;;;;;;3.30;2.53;;;15.20;96.30;;;;;;5113399;27;20252;-63
2021/05/27 07:31:45;;;;;;;4.00;3.08;;;15.20;96.30;;;;;;5113799;27;20214;-62
2021/05/27 07:34:11;;;;;;;2.97;2.78;;;15.10;96.40;;;;;;5113929;27;20235;-63
2021/05/27 07:36:37;;;;;;;6.82;3.03;;;15.20;96.60;;;;;;5113499;27;20233;-63
2021/05/27 07:39:05;;;;;;;2.30;2.10;;;15.20;96.70;;;;;;5113578;27;20230;-63
2021/05/27 07:41:31;;;;;;;3.83;2.60;;;15.30;96.80;;;;;;5113363;27;20680;-63
2021/05/27 07:43:57;;;;;;;3.27;2.53;;;15.50;96.80;;;;;;5113326;27;20461;-62
2021/05/27 07:46:24;;;;;;;6.78;2.70;;;15.50;96.70;;;;;;5113124;27;20475;-63
2021/05/27 07:48:50;;;;;;;4.97;3.30;;;15.70;96.30;;;;;;5107395;27;20700;-63
2021/05/27 07:51:16;;;;;;;4.50;3.80;;;15.70;96.00;;;;;;5110882;27;20472;-62
2021/05/27 07:53:43;;;;;;;6.53;5.83;;;15.70;95.80;;;;;;5113392;27;20463;-63
2021/05/27 07:56:11;;;;;;;6.07;5.40;;;15.80;95.70;;;;;;5113498;27;20966;-63
2021/05/27 07:58:37;;;;;;;5.47;3.20;;;15.70;95.10;;;;;;5112815;27;20953;-63
2021/05/27 08:01:05;;;;;;;5.23;4.73;;;15.80;95.10;;;;;;5113251;27;20475;-63
2021/05/27 08:03:31;;;;;;;4.30;3.60;;;15.80;95.20;;;;;;5112755;27;20461;-63
2021/05/27 08:05:58;;;;;;;2.80;2.47;;;15.70;95.20;;;;;;5113327;27;20556;-63
2021/05/27 08:08:24;;;;;;;2.80;2.37;;;15.80;95.30;;;;;;5112695;27;20502;-63
2021/05/27 08:10:50;;;;;;;2.47;1.70;;;15.70;95.10;;;;;;5113046;28;20475;-63
2021/05/27 08:13:17;;;;;;;2.27;2.03;;;15.80;95.10;;;;;;5113232;27;20464;-62
2021/05/27 08:15:44;;;;;;;3.00;2.20;;;15.70;94.90;;;;;;5113068;27;20455;-62
2021/05/27 08:18:10;;;;;;;3.10;2.70;;;15.80;95.00;;;;;;5112902;27;20479;-62
2021/05/27 08:20:37;;;;;;;2.50;2.30;;;15.80;95.00;;;;;;5112642;27;20468;-62
2021/05/27 08:23:04;;;;;;;3.80;2.13;;;15.80;95.10;;;;;;5113423;27;20502;-62
2021/05/27 08:25:30;;;;;;;1.77;1.27;;;15.90;95.20;;;;;;5112700;27;20862;-62
2021/05/27 08:27:56;;;;;;;2.60;2.40;;;16.00;95.20;;;;;;5108441;27;20466;-62
2021/05/27 08:30:24;;;;;;;3.00;2.70;;;16.10;94.70;;;;;;5111133;27;20465;-62
2021/05/27 08:32:50;;;;;;;2.53;2.30;;;16.10;94.60;;;;;;5112773;27;20970;-62
2021/05/27 08:35:17;;;;;;;3.10;2.80;;;16.00;94.60;;;;;;5112780;27;20472;-62
2021/05/27 08:37:43;;;;;;;2.27;1.87;;;16.00;94.80;;;;;;5112476;27;20509;-62
2021/05/27 08:40:10;;;;;;;2.73;2.50;;;16.00;95.50;;;;;;5112959;27;20969;-62
2021/05/27 08:42:37;;;;;;;2.70;2.50;;;16.00;96.70;;;;;;5112192;27;20464;-61
2021/05/27 08:45:08;;;;;;;4.13;3.10;;;16.10;97.60;;;;;;5112558;27;21019;-64
2021/05/27 08:47:36;;;;;;;6.40;3.80;;;16.00;98.70;;;;;;5105146;27;20464;-62
2021/05/27 08:50:04;;;;;;;4.47;4.07;;;16.00;98.80;;;;;;5099421;28;20969;-64
2021/05/27 08:52:31;;;;;;;3.37;3.03;;;15.90;98.90;;;;;;5112349;27;20469;-63
2021/05/27 08:54:57;;;;;;;4.90;4.40;;;15.80;99.60;;;;;;5112385;27;20483;-63
2021/05/27 08:57:24;;;;;;;5.03;4.30;;;15.70;99.90;;;;;;5112272;27;20465;-63
2021/05/27 08:59:50;;;;;;;6.60;3.40;;;15.70;99.90;;;;;;5111059;28;20848;-62
2021/05/27 09:02:17;;;;;;;2.07;1.97;;;15.60;99.90;;;;;;5112500;28;20464;-63
2021/05/27 09:04:44;;;;;;;2.90;2.70;;;15.50;99.90;;;;;;5111785;27;20460;-64
2021/05/27 09:07:12;;;;;;;3.33;3.13;;;15.50;99.90;;;;;;5112488;28;21006;-63
2021/05/27 09:09:51;;;;;;;4.07;3.23;;;15.50;99.90;;;;;;5111779;27;20464;-63
2021/05/27 09:12:26;;;;;;;3.45;3.13;;;15.40;99.90;;;;;;5113672;28;20533;-63
2021/05/27 09:14:52;;;;;;;4.00;2.97;;;15.40;99.90;;;;;;5115766;28;20655;-63
2021/05/27 09:17:19;;;;;;;3.80;3.50;;;15.40;99.90;;;;;;5116468;27;20520;-64
2021/05/27 09:20:03;;;;;;;4.88;4.47;;;15.30;99.90;;;;;;5115886;27;20470;-63
2021/05/27 09:22:29;;;;;;;5.57;5.18;;;15.30;99.90;;;;;;5115801;27;20226;-63
2021/05/27 09:24:56;;;;;;;4.97;4.57;;;15.20;99.90;;;;;;5116486;28;20245;-64
2021/05/27 09:27:44;;;;;;;4.25;3.53;;;15.20;99.90;;;;;;5115711;27;20226;-63
2021/05/27 09:30:11;;;;;;;4.25;3.72;;;15.20;99.90;;;;;;5108817;27;20376;-63
2021/05/27 09:32:38;;;;;;;5.05;3.35;;;15.20;99.90;;;;;;5115995;27;20586;-63
2021/05/27 09:35:10;;;;;;;3.60;2.75;;;15.20;99.90;;;;;;5116465;27;20248;-63
2021/05/27 09:37:37;;;;;;;3.40;2.33;;;15.30;99.90;;;;;;5115786;27;20219;-63
2021/05/27 09:40:06;;;;;;;3.22;2.42;;;15.40;99.90;;;;;;5116374;27;20219;-63
2021/05/27 09:42:49;;;;;;;2.27;2.07;;;15.50;99.90;;;;;;5115522;27;20245;-63
2021/05/27 09:45:16;;;;;;;1.80;1.70;;;15.60;99.90;;;;;;5115524;27;20460;-63
2021/05/27 09:47:43;;;;;;;2.47;1.87;;;15.80;99.90;;;;;;5115832;27;20464;-62
2021/05/27 09:50:12;;;;;;;2.40;2.20;;;16.00;99.90;;;;;;5114287;28;20527;-63
2021/05/27 09:52:39;;;;;;;2.50;2.00;;;16.20;99.90;;;;;;5115738;27;20924;-63
2021/05/27 09:55:10;;;;;;;1.50;1.40;;;16.30;99.90;;;;;;5115704;28;20479;-64
2021/05/27 09:57:37;;;;;;;1.43;1.33;;;16.50;99.90;;;;;;5115324;27;20476;-63
2021/05/27 10:00:06;;;;;;;2.20;1.90;;;16.60;99.90;;;;;;5115480;27;20468;-63
2021/05/27 10:02:35;;;;;;;2.33;2.13;;;16.70;99.60;;;;;;5115302;27;20464;-64
2021/05/27 10:05:06;;;;;;;4.23;1.43;;;16.80;99.10;;;;;;5115501;28;21004;-63
2021/05/27 10:07:41;;;;;;;1.63;1.53;;;16.80;99.20;;;;;;5115201;28;21029;-63
2021/05/27 10:10:09;;;;;;;2.07;1.50;;;16.90;99.00;;;;;;5114819;27;20919;-63
2021/05/27 10:12:38;;;;;;;1.57;1.47;;;16.90;98.30;;;;;;5114912;28;20445;-62
2021/05/27 10:15:07;;;;;;;1.97;1.50;;;16.90;97.20;;;;;;5103375;27;20464;-63
2021/05/27 10:17:33;;;;;;;2.07;1.10;;;17.00;96.60;;;;;;5114531;28;20464;-62
2021/05/27 10:20:00;;;;;;;1.30;1.20;;;16.90;95.70;;;;;;5115513;27;20522;-63
2021/05/27 10:22:27;;;;;;;1.40;1.30;;;16.90;94.90;;;;;;5114967;27;20592;-62
2021/05/27 10:24:54;;;;;;;1.97;1.40;;;16.80;93.80;;;;;;5115262;27;20491;-63
2021/05/27 10:27:21;;;;;;;2.13;1.60;;;16.90;93.60;;;;;;5114473;27;20456;-63
2021/05/27 10:29:48;;;;;;;2.43;1.97;;;16.90;93.70;;;;;;5115234;27;20789;-63
2021/05/27 10:32:17;;;;;;;2.47;1.53;;;17.00;93.70;;;;;;5115080;27;20468;-63
2021/05/27 10:34:46;;;;;;;1.33;1.20;;;17.10;92.40;;;;;;5114823;27;20544;-63
2021/05/27 10:37:13;;;;;;;2.87;1.17;;;17.10;91.90;;;;;;5114982;27;20498;-63
2021/05/27 10:39:40;;;;;;;1.43;0.90;;;17.20;92.00;;;;;;5114595;27;20456;-63
2021/05/27 10:42:08;;;;;;;3.77;1.47;;;17.20;92.20;;;;;;5115038;27;20467;-63
2021/05/27 10:44:35;;;;;;;1.40;1.30;;;17.20;92.00;;;;;;5114308;27;20474;-63
2021/05/27 10:47:13;;;;;;;1.70;1.60;;;17.30;92.30;;;;;;5114706;27;20465;-62
2021/05/27 10:49:56;;;;;;;2.27;1.53;;;17.30;92.00;;;;;;5104650;28;20468;-62
2021/05/27 10:52:44;;;;;;;1.37;1.00;;;17.40;91.70;;;;;;5114103;27;20471;-62
2021/05/27 10:55:55;;;;;;;2.37;2.17;;;17.50;91.80;;;;;;5114547;27;20560;-63
2021/05/27 10:59:07;;;;;;;4.33;2.83;;;17.60;91.90;;;;;;5114164;27;20874;-63
2021/05/27 11:01:53;;;;;;;1.70;1.60;;;17.60;91.00;;;;;;5089373;27;21275;-63
2021/05/27 11:04:25;;;;;;;1.60;1.20;;;17.60;91.30;;;;;;5114143;27;20472;-62
2021/05/27 11:07:10;;;;;;;2.07;1.80;;;17.60;90.80;;;;;;5112373;28;20472;-62
2021/05/27 11:09:37;;;;;;;4.57;4.17;;;17.60;91.00;;;;;;5114148;28;21104;-63
2021/05/27 11:12:16;;;;;;;4.70;1.80;;;17.60;90.90;;;;;;5114243;28;20476;-62
2021/05/27 11:14:46;;;;;;;2.17;1.43;;;17.70;90.60;;;;;;5113913;28;20460;-62
2021/05/27 11:17:25;;;;;;;3.00;1.40;;;17.80;89.80;;;;;;5114255;27;20639;-64
2021/05/27 11:19:55;;;;;;;3.63;1.30;;;17.80;90.30;;;;;;5113499;28;20466;-63
2021/05/27 11:22:50;;;;;;;1.93;1.30;;;17.80;90.20;;;;;;5113939;28;20468;-63
2021/05/27 11:25:31;;;;;;;1.20;1.10;;;17.80;90.40;;;;;;5109898;28;20472;-63
2021/05/27 11:28:13;;;;;;;1.20;1.10;;;17.90;90.50;;;;;;5113170;27;20968;-62
2021/05/27 11:30:44;;;;;;;1.50;1.40;;;17.90;90.70;;;;;;5113318;28;20456;-63
2021/05/27 11:33:29;;;;;;;2.37;2.17;;;17.90;90.90;;;;;;5113747;27;20472;-63
2021/05/27 11:36:00;;;;;;;4.40;1.90;;;18.00;91.70;;;;;;5113281;27;20846;-63
2021/05/27 11:38:28;;;;;;;1.63;0.97;;;18.00;92.10;;;;;;5113657;27;20456;-63
2021/05/27 11:40:57;;;;;;;1.07;0.87;;;18.10;92.20;;;;;;5113566;27;20492;-63
2021/05/27 11:43:27;;;;;;;1.47;1.00;;;18.00;92.10;;;;;;5118489;27;20459;-63
2021/05/27 11:45:55;;;;;;;1.37;1.13;;;18.00;91.70;;;;;;5110709;27;20469;-63
2021/05/27 11:48:25;;;;;;;1.20;0.90;;;18.00;91.70;;;;;;5111282;27;20465;-62
2021/05/27 11:50:51;;;;;;;1.00;0.90;;;18.10;91.40;;;;;;5112273;27;20469;-63
2021/05/27 11:53:20;;;;;;;2.40;1.40;;;18.10;91.60;;;;;;5113016;27;20475;-63
2021/05/27 11:55:53;;;;;;;1.83;1.40;;;18.30;90.80;;;;;;5113562;28;20469;-63
2021/05/27 11:58:33;;;;;;;1.33;1.00;;;18.30;91.20;;;;;;5110148;28;20798;-63
2021/05/27 12:01:16;;;;;;;1.53;1.43;;;18.30;91.10;;;;;;5113583;28;20464;-63
2021/05/27 12:04:05;;;;;;;0.73;0.73;;;18.20;91.30;;;;;;5112947;27;20464;-63
2021/05/27 12:06:50;;;;;;;1.10;1.00;;;18.10;91.10;;;;;;5112891;27;20529;-63
2021/05/27 12:09:26;;;;;;;1.03;0.80;;;18.00;90.90;;;;;;5113513;27;20467;-63
2021/05/27 12:11:52;;;;;;;1.00;0.90;;;17.90;91.20;;;;;;5112361;27;20528;-63
2021/05/27 12:14:19;;;;;;;1.60;0.90;;;17.90;91.30;;;;;;5113216;27;20467;-63
2021/05/27 12:16:45;;;;;;;1.10;0.83;;;17.80;90.90;;;;;;5112356;27;20468;-63
2021/05/27 12:19:13;;;;;;;0.73;0.73;;;17.80;90.90;;;;;;5113211;27;20980;-61
2021/05/27 12:21:53;;;;;;;0.93;0.83;;;17.80;91.10;;;;;;5112566;27;20521;-63
2021/05/27 12:24:26;;;;;;;1.30;1.00;;;17.90;91.70;;;;;;5112426;27;20464;-63
2021/05/27 12:26:52;;;;;;;2.10;1.03;;;18.00;91.70;;;;;;5103212;27;20844;-63
2021/05/27 12:29:19;;;;;;;5.40;3.43;;;17.90;90.60;;;;;;5112820;27;20465;-62
2021/05/27 12:31:45;;;;;;;2.60;2.03;;;17.90;90.70;;;;;;5109522;27;20487;-62
2021/05/27 12:34:15;;;;;;;2.27;1.13;;;18.00;91.00;;;;;;5112483;27;20471;-62
2021/05/27 12:36:52;;;;;;;3.70;2.77;;;17.90;91.50;;;;;;5112404;27;20468;-62
2021/05/27 12:39:28;;;;;;;5.03;4.53;;;18.00;91.90;;;;;;5112368;27;20468;-63
2021/05/27 12:41:55;;;;;;;1.40;1.30;;;18.10;92.20;;;;;;5107394;27;21537;-62
2021/05/27 12:44:41;;;;;;;3.43;2.50;;;18.10;92.20;;;;;;5112523;27;20467;-63
2021/05/27 12:47:15;;;;;;;2.30;1.73;;;18.10;92.30;;;;;;5111541;27;20478;-63
2021/05/27 12:49:43;;;;;;;3.10;2.30;;;18.10;92.30;;;;;;5110645;27;20454;-62
2021/05/27 12:52:10;;;;;;;2.90;2.53;;;18.00;92.40;;;;;;5112219;28;20471;-63
2021/05/27 12:54:36;;;;;;;2.80;1.60;;;18.10;92.50;;;;;;5111755;27;20465;-63
2021/05/27 12:57:06;;;;;;;1.97;1.03;;;18.10;91.90;;;;;;5111900;27;20547;-62